Newark, NJ

05:38 EDT dnia 31-październik-2014 (GMT -0400)
Near Red Bull Arena | Change Station
CLOSE
Current Station
Stacja PWS
Location: Harrison, NJ
n.p.m.: 23 ft
Najbliższa stacja pogodowa

Wysokość 23 ft 40.74 °N, 74.15 °W | Updated 11 minutes ago

Mostly Cloudy
przewaga chmur
42.4 ° F
Odczuwalna 42 ° F
Płn.
0.0
Wiatr zmienny Wiatr od WsPdWs
Gusts 0.0 mph

Dziś
Wysoka -- | Niska -- ° F
--% Prawdop. opadów
Wczoraj
Wysoka -- | Niska -- ° F
Precip. -- cali
7:25 AM 5:54 PM
Pierwsza kwadra, 53% visible
Ciśnienie 30.01 cali
Widzialność 10.0 mil
chmury przewaga chmur 5000 ft
czynnik chłodzący wiatru 42 ° F
Punkt rosy 37 ° F
Wilgotność 81%
Opady deszczu 0.00 cali
grubość pokrywy śnieżnej Niedostępne.
UV 0 z 12
Pyłki .90 z 12
Jakość powietrza Niedostępne.
Flu Activity Niedostępne.
METAR KEWR 310851Z 01005KT 10SM BKN050 06/02 A3001 RMK AO2 SLP161 T00560022 56005

More Conditions Fewer Conditions

Ciśnienie 30.01 cali
Widzialność 10.0 mil
chmury przewaga chmur 5000 ft
czynnik chłodzący wiatru 42 ° F
Punkt rosy 37 ° F
Wilgotność 81%
Opady deszczu 0.00 cali
grubość pokrywy śnieżnej Niedostępne.
UV 0 z 12
Pyłki .90 z 12
Jakość powietrza Niedostępne.
Flu Activity Niedostępne.
METAR KEWR 310851Z 01005KT 10SM BKN050 06/02 A3001 RMK AO2 SLP161 T00560022 56005

More Conditions Fewer Conditions

10-Day Weather Forecast

Almanac

Astronomia

Oct. 31, 2014 Wschód Zachów
Aktualny czas
Zmierzch cywilny
Zmierzch żeglarski
świt/zmierzch astronomiczny
Księżyc
całkowite oświetlenie
Długość dnia
Tomorrow will be .
, % of the Moon is Illuminated

Dzisiejsze ekstrema

State Highs State Lows

Community

WunderPhotos

Upload Photos

1,766,576 zdjęcia zostały przesłane!

WunderBlogs® & News

Nearby

Jakość powietrza

  Jakość powietrza czynnik AQ Zanieczyszczenie
Not available.

Głębokość pokrywy śnieżnej

Station Depth n.p.m.

Aktywność sejsmiczna

Miejscowość Distance Mag. Time & Date
Minimum magnitude displayed is 2.5.

Temperatury wody na wybrzeżu

Miejsce Temperatura

Najbliższa stacja pogodowa